Time,TemperatureF,DewpointF,PressureIn,WindDirection,WindDirectionDegrees,WindSpeedMPH,WindSpeedGustMPH,Humidity,HourlyPrecipIn,Conditions,Clouds,dailyrainin,SoftwareType,DateUTC
2013-10-29 00:01:00,54.5,53.7,30.27,ENE,62,1.0,3.0,97,0.00,,,0.00,Wunderground v.1.15,2013-10-29 04:01:00,
2013-10-29 00:02:00,54.5,53.7,30.27,ENE,62,1.0,3.0,97,0.00,,,0.00,Wunderground v.1.15,2013-10-29 04:02:00,
2013-10-29 00:03:00,54.5,53.7,30.27,ENE,62,2.0,3.0,97,0.00,,,0.00,Wunderground v.1.15,2013-10-29 04:03:00,
2013-10-29 00:04:00,54.5,53.7,30.27,ENE,62,2.0,3.0,97,0.00,,,0.00,Wunderground v.1.15,2013-10-29 04:04:00,
2013-10-29 00:05:00,54.5,53.7,30.27,ENE,62,2.0,3.0,97,0.00,,,0.00,Wunderground v.1.15,2013-10-29 04:05:00,
2013-10-29 00:10:00,54.5,53.7,30.27,ENE,62,2.0,2.0,97,0.00,,,0.00,Wunderground v.1.15,2013-10-29 04:10:00,
2013-10-29 00:16:00,54.7,53.9,30.27,ENE,62,2.0,2.0,97,0.00,,,0.00,Wunderground v.1.15,2013-10-29 04:16:00,
2013-10-29 00:21:00,54.7,53.9,30.26,ENE,62,1.0,1.0,97,0.00,,,0.00,Wunderground v.1.15,2013-10-29 04:21:00,
2013-10-29 00:27:00,54.7,53.9,30.26,ENE,62,0.0,2.0,97,0.00,,,0.00,Wunderground v.1.15,2013-10-29 04:27:00,
2013-10-29 00:32:00,54.7,53.9,30.26,ENE,62,0.0,0.0,97,0.00,,,0.00,Wunderground v.1.15,2013-10-29 04:32:00,
2013-10-29 00:37:00,54.7,53.9,30.26,ENE,62,0.0,0.0,97,0.00,,,0.00,Wunderground v.1.15,2013-10-29 04:37:00,
2013-10-29 00:40:00,54.8,54.0,30.26,ENE,62,0.0,0.0,97,0.00,,,0.00,Wunderground v.1.15,2013-10-29 04:40:00,
2013-10-29 00:45:00,54.7,53.9,30.26,ENE,62,0.0,0.0,97,0.00,,,0.00,Wunderground v.1.15,2013-10-29 04:45:00,
2013-10-29 00:51:00,54.7,53.9,30.26,ENE,62,0.0,0.0,97,0.00,,,0.00,Wunderground v.1.15,2013-10-29 04:51:00,
2013-10-29 00:56:00,54.7,53.9,30.26,ENE,62,0.0,0.0,97,0.00,,,0.00,Wunderground v.1.15,2013-10-29 04:56:00,
2013-10-29 01:01:00,54.7,53.9,30.26,ENE,62,0.0,1.0,97,0.00,,,0.00,Wunderground v.1.15,2013-10-29 05:01:00,
2013-10-29 01:07:00,54.8,54.0,30.26,ENE,62,1.0,1.0,97,0.00,,,0.00,Wunderground v.1.15,2013-10-29 05:07:00,
2013-10-29 01:13:00,54.8,54.0,30.26,ENE,62,0.0,1.0,97,0.00,,,0.00,Wunderground v.1.15,2013-10-29 05:13:00,
2013-10-29 01:18:00,55.0,54.2,30.26,ENE,62,0.0,1.0,97,0.00,,,0.00,Wunderground v.1.15,2013-10-29 05:18:00,
2013-10-29 01:23:00,55.0,54.2,30.26,ENE,62,0.0,0.0,97,0.00,,,0.00,Wunderground v.1.15,2013-10-29 05:23:00,
2013-10-29 01:29:00,55.0,54.2,30.26,ENE,62,0.0,2.0,97,0.00,,,0.00,Wunderground v.1.15,2013-10-29 05:29:00,
2013-10-29 01:34:00,55.0,54.2,30.26,ENE,62,1.0,1.0,97,0.00,,,0.00,Wunderground v.1.15,2013-10-29 05:34:00,
2013-10-29 01:40:00,55.0,54.2,30.25,ENE,62,0.0,0.0,97,0.00,,,0.00,Wunderground v.1.15,2013-10-29 05:40:00,
2013-10-29 01:45:00,55.1,54.3,30.25,ENE,62,0.0,0.0,97,0.00,,,0.00,Wunderground v.1.15,2013-10-29 05:45:00,
2013-10-29 01:51:00,55.1,54.3,30.25,ENE,62,0.0,0.0,97,0.00,,,0.00,Wunderground v.1.15,2013-10-29 05:51:00,
2013-10-29 01:57:00,55.1,54.0,30.25,ENE,62,0.0,0.0,96,0.00,,,0.00,Wunderground v.1.15,2013-10-29 05:57:00,
2013-10-29 02:02:00,55.0,53.9,30.25,ENE,62,0.0,0.0,96,0.00,,,0.00,Wunderground v.1.15,2013-10-29 06:02:00,
2013-10-29 02:08:00,55.0,53.9,30.26,ENE,62,0.0,0.0,96,0.00,,,0.00,Wunderground v.1.15,2013-10-29 06:08:00,
2013-10-29 02:14:00,55.0,53.9,30.26,ENE,62,0.0,0.0,96,0.00,,,0.00,Wunderground v.1.15,2013-10-29 06:14:00,
2013-10-29 02:19:00,55.0,53.9,30.26,ENE,62,0.0,0.0,96,0.00,,,0.00,Wunderground v.1.15,2013-10-29 06:19:00,
2013-10-29 02:25:00,55.1,54.0,30.26,ENE,62,0.0,0.0,96,0.00,,,0.00,Wunderground v.1.15,2013-10-29 06:25:00,
2013-10-29 02:30:00,55.1,54.0,30.26,ENE,62,0.0,0.0,96,0.00,,,0.00,Wunderground v.1.15,2013-10-29 06:30:00,
2013-10-29 02:36:00,55.3,54.2,30.27,ENE,62,0.0,0.0,96,0.00,,,0.00,Wunderground v.1.15,2013-10-29 06:36:00,
2013-10-29 02:41:00,55.3,54.2,30.27,ENE,62,0.0,0.0,96,0.00,,,0.00,Wunderground v.1.15,2013-10-29 06:41:00,
2013-10-29 02:47:00,55.3,54.2,30.27,ENE,62,0.0,0.0,96,0.00,,,0.00,Wunderground v.1.15,2013-10-29 06:47:00,
2013-10-29 02:52:00,55.3,54.2,30.27,ENE,62,0.0,0.0,96,0.00,,,0.00,Wunderground v.1.15,2013-10-29 06:52:00,
2013-10-29 02:58:00,55.1,54.0,30.27,ENE,62,0.0,0.0,96,0.00,,,0.00,Wunderground v.1.15,2013-10-29 06:58:00,
2013-10-29 03:03:00,55.1,54.0,30.27,ENE,62,0.0,0.0,96,0.00,,,0.00,Wunderground v.1.15,2013-10-29 07:03:00,
2013-10-29 03:09:00,55.0,53.9,30.27,ENE,62,0.0,0.0,96,0.00,,,0.00,Wunderground v.1.15,2013-10-29 07:09:00,
2013-10-29 03:14:00,54.8,53.7,30.27,ENE,62,0.0,0.0,96,0.00,,,0.00,Wunderground v.1.15,2013-10-29 07:14:00,
2013-10-29 03:20:00,54.5,53.4,30.27,ENE,62,0.0,0.0,96,0.00,,,0.00,Wunderground v.1.15,2013-10-29 07:20:00,
2013-10-29 03:25:00,54.4,53.3,30.26,ENE,62,0.0,0.0,96,0.00,,,0.00,Wunderground v.1.15,2013-10-29 07:25:00,
2013-10-29 03:31:00,54.4,53.3,30.26,ENE,62,0.0,0.0,96,0.00,,,0.00,Wunderground v.1.15,2013-10-29 07:31:00,
2013-10-29 03:36:00,54.4,53.3,30.28,ENE,62,0.0,0.0,96,0.00,,,0.00,Wunderground v.1.15,2013-10-29 07:36:00,
2013-10-29 03:41:00,54.4,53.3,30.28,ENE,62,0.0,0.0,96,0.00,,,0.00,Wunderground v.1.15,2013-10-29 07:41:00,
2013-10-29 03:47:00,54.4,53.6,30.28,ENE,62,0.0,0.0,97,0.00,,,0.00,Wunderground v.1.15,2013-10-29 07:47:00,
2013-10-29 03:52:00,54.4,53.6,30.28,ENE,62,0.0,0.0,97,0.00,,,0.00,Wunderground v.1.15,2013-10-29 07:52:00,
2013-10-29 03:58:00,54.4,53.6,30.28,ENE,62,0.0,0.0,97,0.00,,,0.00,Wunderground v.1.15,2013-10-29 07:58:00,
2013-10-29 04:03:00,54.2,53.4,30.28,ENE,62,0.0,0.0,97,0.00,,,0.00,Wunderground v.1.15,2013-10-29 08:03:00,
2013-10-29 04:09:00,54.1,53.3,30.27,ENE,62,0.0,0.0,97,0.00,,,0.00,Wunderground v.1.15,2013-10-29 08:09:00,
2013-10-29 04:14:00,54.1,53.3,30.27,ENE,62,0.0,0.0,97,0.00,,,0.00,Wunderground v.1.15,2013-10-29 08:14:00,
2013-10-29 04:20:00,53.9,53.1,30.27,ENE,62,0.0,0.0,97,0.00,,,0.00,Wunderground v.1.15,2013-10-29 08:20:00,
2013-10-29 04:25:00,53.8,53.0,30.27,ENE,62,0.0,0.0,97,0.00,,,0.00,Wunderground v.1.15,2013-10-29 08:25:00,
2013-10-29 04:31:00,53.8,53.0,30.27,ENE,62,0.0,0.0,97,0.00,,,0.00,Wunderground v.1.15,2013-10-29 08:31:00,
2013-10-29 04:36:00,53.6,52.8,30.28,ENE,62,0.0,0.0,97,0.00,,,0.00,Wunderground v.1.15,2013-10-29 08:36:00,
2013-10-29 04:42:00,53.6,52.8,30.28,ENE,62,0.0,0.0,97,0.00,,,0.00,Wunderground v.1.15,2013-10-29 08:42:00,
2013-10-29 04:47:00,53.6,52.8,30.28,ENE,62,0.0,0.0,97,0.00,,,0.00,Wunderground v.1.15,2013-10-29 08:47:00,
2013-10-29 04:52:00,53.6,52.8,30.27,ENE,62,0.0,0.0,97,0.00,,,0.00,Wunderground v.1.15,2013-10-29 08:52:00,
2013-10-29 04:58:00,53.5,52.7,30.27,ENE,62,0.0,0.0,97,0.00,,,0.00,Wunderground v.1.15,2013-10-29 08:58:00,
2013-10-29 05:03:00,53.6,53.0,30.27,ENE,62,0.0,1.0,98,0.00,,,0.00,Wunderground v.1.15,2013-10-29 09:03:00,
2013-10-29 05:09:00,53.6,53.0,30.28,ENE,62,0.0,0.0,98,0.00,,,0.00,Wunderground v.1.15,2013-10-29 09:09:00,
2013-10-29 05:15:00,53.8,53.2,30.28,ENE,62,0.0,0.0,98,0.00,,,0.00,Wunderground v.1.15,2013-10-29 09:15:00,
2013-10-29 05:21:00,53.8,53.2,30.28,ENE,62,0.0,0.0,98,0.00,,,0.00,Wunderground v.1.15,2013-10-29 09:21:00,
2013-10-29 05:26:00,53.8,53.2,30.28,ENE,62,0.0,0.0,98,0.00,,,0.00,Wunderground v.1.15,2013-10-29 09:26:00,
2013-10-29 05:32:00,53.8,53.5,30.28,ENE,62,0.0,0.0,99,0.00,,,0.00,Wunderground v.1.15,2013-10-29 09:32:00,
2013-10-29 05:37:00,53.9,53.6,30.28,ENE,62,0.0,0.0,99,0.00,,,0.00,Wunderground v.1.15,2013-10-29 09:37:00,
2013-10-29 05:43:00,53.9,53.6,30.28,ENE,62,0.0,0.0,99,0.00,,,0.00,Wunderground v.1.15,2013-10-29 09:43:00,
2013-10-29 05:48:00,53.9,53.6,30.28,ENE,62,0.0,0.0,99,0.00,,,0.00,Wunderground v.1.15,2013-10-29 09:48:00,
2013-10-29 05:54:00,53.9,53.6,30.28,ENE,62,0.0,0.0,99,0.00,,,0.00,Wunderground v.1.15,2013-10-29 09:54:00,
2013-10-29 05:59:00,53.9,53.6,30.28,ENE,62,0.0,0.0,99,0.00,,,0.00,Wunderground v.1.15,2013-10-29 09:59:00,
2013-10-29 06:05:00,53.9,53.6,30.28,ENE,62,0.0,0.0,99,0.00,,,0.00,Wunderground v.1.15,2013-10-29 10:05:00,
2013-10-29 06:10:00,53.9,53.6,30.28,ENE,62,0.0,0.0,99,0.00,,,0.00,Wunderground v.1.15,2013-10-29 10:10:00,
2013-10-29 06:16:00,53.9,53.6,30.28,ENE,62,0.0,0.0,99,0.00,,,0.00,Wunderground v.1.15,2013-10-29 10:16:00,
2013-10-29 06:21:00,53.9,53.6,30.29,ENE,62,0.0,0.0,99,0.00,,,0.00,Wunderground v.1.15,2013-10-29 10:21:00,
2013-10-29 06:26:00,53.9,53.6,30.29,ENE,62,0.0,0.0,99,0.00,,,0.00,Wunderground v.1.15,2013-10-29 10:26:00,
2013-10-29 06:32:00,53.9,53.6,30.29,ENE,62,0.0,0.0,99,0.00,,,0.00,Wunderground v.1.15,2013-10-29 10:32:00,
2013-10-29 06:37:00,53.9,53.6,30.30,ENE,62,0.0,0.0,99,0.00,,,0.00,Wunderground v.1.15,2013-10-29 10:37:00,
2013-10-29 06:43:00,53.9,53.6,30.30,ENE,62,0.0,0.0,99,0.00,,,0.00,Wunderground v.1.15,2013-10-29 10:43:00,
2013-10-29 06:48:00,53.9,53.6,30.30,ENE,62,0.0,2.0,99,0.00,,,0.00,Wunderground v.1.15,2013-10-29 10:48:00,
2013-10-29 06:54:00,53.9,53.6,30.30,ENE,62,0.0,0.0,99,0.00,,,0.00,Wunderground v.1.15,2013-10-29 10:54:00,
2013-10-29 06:59:00,53.9,53.6,30.30,ENE,62,0.0,0.0,99,0.00,,,0.00,Wunderground v.1.15,2013-10-29 10:59:00,
2013-10-29 07:05:00,53.9,53.6,30.30,ENE,62,0.0,0.0,99,0.00,,,0.00,Wunderground v.1.15,2013-10-29 11:05:00,
2013-10-29 07:10:00,53.9,53.6,30.30,ENE,62,0.0,0.0,99,0.00,,,0.00,Wunderground v.1.15,2013-10-29 11:10:00,
2013-10-29 07:16:00,53.9,53.6,30.30,ENE,62,0.0,0.0,99,0.00,,,0.00,Wunderground v.1.15,2013-10-29 11:16:00,
2013-10-29 07:21:00,53.9,53.9,30.30,ENE,62,0.0,0.0,100,0.00,,,0.00,Wunderground v.1.15,2013-10-29 11:21:00,
2013-10-29 07:27:00,53.8,53.8,30.30,ENE,62,0.0,2.0,100,0.00,,,0.00,Wunderground v.1.15,2013-10-29 11:27:00,
2013-10-29 07:32:00,53.8,53.8,30.30,ENE,62,1.0,2.0,100,0.00,,,0.00,Wunderground v.1.15,2013-10-29 11:32:00,
2013-10-29 07:38:00,53.8,53.8,30.30,ENE,62,0.0,2.0,100,0.00,,,0.00,Wunderground v.1.15,2013-10-29 11:38:00,
2013-10-29 07:43:00,53.8,53.8,30.30,ENE,62,0.0,0.0,100,0.00,,,0.00,Wunderground v.1.15,2013-10-29 11:43:00,
2013-10-29 07:48:00,53.8,53.8,30.30,ENE,62,0.0,0.0,100,0.00,,,0.00,Wunderground v.1.15,2013-10-29 11:48:00,
2013-10-29 07:54:00,53.9,53.9,30.31,ENE,61,0.0,0.0,100,0.00,,,0.00,Wunderground v.1.15,2013-10-29 11:54:00,
2013-10-29 08:00:00,53.9,53.9,30.31,ENE,61,0.0,0.0,100,0.00,,,0.00,Wunderground v.1.15,2013-10-29 12:00:00,
2013-10-29 08:06:00,53.9,53.9,30.31,ENE,61,0.0,0.0,100,0.00,,,0.00,Wunderground v.1.15,2013-10-29 12:06:00,
2013-10-29 08:12:00,53.9,53.9,30.31,ENE,61,0.0,0.0,100,0.00,,,0.00,Wunderground v.1.15,2013-10-29 12:12:00,
2013-10-29 08:18:00,53.9,53.9,30.31,ENE,61,0.0,0.0,100,0.00,,,0.00,Wunderground v.1.15,2013-10-29 12:18:00,
2013-10-29 08:23:00,53.9,53.9,30.31,ENE,61,0.0,0.0,100,0.00,,,0.00,Wunderground v.1.15,2013-10-29 12:23:00,
2013-10-29 08:28:00,53.9,53.9,30.31,ENE,61,0.0,0.0,100,0.00,,,0.00,Wunderground v.1.15,2013-10-29 12:28:00,
2013-10-29 08:34:00,53.9,53.9,30.31,ENE,61,0.0,0.0,100,0.00,,,0.00,Wunderground v.1.15,2013-10-29 12:34:00,
2013-10-29 08:40:00,54.1,54.1,30.31,ENE,61,0.0,0.0,100,0.00,,,0.00,Wunderground v.1.15,2013-10-29 12:40:00,
2013-10-29 08:46:00,54.1,54.1,30.31,ENE,61,0.0,0.0,100,0.00,,,0.00,Wunderground v.1.15,2013-10-29 12:46:00,
2013-10-29 08:51:00,54.2,54.2,30.31,ENE,61,0.0,0.0,100,0.00,,,0.00,Wunderground v.1.15,2013-10-29 12:51:00,
2013-10-29 08:57:00,54.5,54.5,30.31,ENE,61,0.0,0.0,100,0.00,,,0.00,Wunderground v.1.15,2013-10-29 12:57:00,
2013-10-29 09:02:00,54.7,54.7,30.31,ENE,61,0.0,0.0,100,0.00,,,0.00,Wunderground v.1.15,2013-10-29 13:02:00,
2013-10-29 09:08:00,54.7,54.7,30.31,ENE,61,0.0,0.0,100,0.00,,,0.00,Wunderground v.1.15,2013-10-29 13:08:00,
2013-10-29 09:13:00,54.7,54.7,30.31,ENE,61,0.0,0.0,100,0.00,,,0.00,Wunderground v.1.15,2013-10-29 13:13:00,
2013-10-29 09:19:00,54.7,54.7,30.31,ENE,61,0.0,2.0,100,0.00,,,0.00,Wunderground v.1.15,2013-10-29 13:19:00,
2013-10-29 09:24:00,54.8,54.8,30.31,ENE,61,1.0,2.0,100,0.00,,,0.00,Wunderground v.1.15,2013-10-29 13:24:00,
2013-10-29 09:30:00,55.0,55.0,30.31,ENE,61,0.0,1.0,100,0.00,,,0.00,Wunderground v.1.15,2013-10-29 13:30:00,
2013-10-29 09:35:00,55.1,55.1,30.31,ENE,61,0.0,1.0,100,0.00,,,0.00,Wunderground v.1.15,2013-10-29 13:35:00,
2013-10-29 09:41:00,55.1,55.1,30.31,ENE,61,1.0,2.0,100,0.00,,,0.00,Wunderground v.1.15,2013-10-29 13:41:00,
2013-10-29 09:46:00,55.1,55.1,30.31,ENE,61,1.0,2.0,100,0.00,,,0.00,Wunderground v.1.15,2013-10-29 13:46:00,
2013-10-29 09:52:00,55.1,55.1,30.31,ENE,61,1.0,1.0,100,0.00,,,0.00,Wunderground v.1.15,2013-10-29 13:52:00,
2013-10-29 09:57:00,55.3,55.3,30.31,ENE,61,0.0,1.0,100,0.00,,,0.00,Wunderground v.1.15,2013-10-29 13:57:00,
2013-10-29 10:02:00,55.3,55.3,30.31,ENE,61,1.0,2.0,100,0.00,,,0.00,Wunderground v.1.15,2013-10-29 14:02:00,
2013-10-29 10:08:00,55.3,55.3,30.32,ENE,61,1.0,2.0,100,0.00,,,0.00,Wunderground v.1.15,2013-10-29 14:08:00,
2013-10-29 10:13:00,55.4,55.4,30.32,ENE,61,0.0,1.0,100,0.00,,,0.00,Wunderground v.1.15,2013-10-29 14:13:00,
2013-10-29 10:19:00,55.9,55.9,30.32,ENE,61,0.0,3.0,100,0.00,,,0.00,Wunderground v.1.15,2013-10-29 14:19:00,
2013-10-29 10:24:00,56.2,56.2,30.32,ENE,61,1.0,3.0,100,0.00,,,0.00,Wunderground v.1.15,2013-10-29 14:24:00,
2013-10-29 10:30:00,56.6,56.3,30.32,ENE,60,1.0,1.0,99,0.00,,,0.00,Wunderground v.1.15,2013-10-29 14:30:00,
2013-10-29 10:35:00,57.3,56.2,30.32,ENE,61,2.0,4.0,96,0.00,,,0.00,Wunderground v.1.15,2013-10-29 14:35:00,
2013-10-29 10:41:00,57.8,56.1,30.32,NE,39,3.0,5.0,94,0.00,,,0.00,Wunderground v.1.15,2013-10-29 14:41:00,
2013-10-29 10:46:00,57.6,55.0,30.32,ENE,70,4.0,5.0,91,0.00,,,0.00,Wunderground v.1.15,2013-10-29 14:46:00,
2013-10-29 10:52:00,57.5,54.9,30.33,ENE,70,3.0,5.0,91,0.00,,,0.00,Wunderground v.1.15,2013-10-29 14:52:00,
2013-10-29 10:57:00,57.3,54.4,30.33,ENE,70,2.0,5.0,90,0.00,,,0.00,Wunderground v.1.15,2013-10-29 14:57:00,
2013-10-29 11:03:00,57.5,54.9,30.33,ENE,70,2.0,2.0,91,0.00,,,0.00,Wunderground v.1.15,2013-10-29 15:03:00,
2013-10-29 11:08:00,57.5,54.6,30.33,ENE,70,1.0,2.0,90,0.00,,,0.00,Wunderground v.1.15,2013-10-29 15:08:00,
2013-10-29 11:14:00,57.5,54.6,30.33,ENE,70,1.0,3.0,90,0.00,,,0.00,Wunderground v.1.15,2013-10-29 15:14:00,
2013-10-29 11:19:00,57.6,54.7,30.33,ENE,70,1.0,2.0,90,0.00,,,0.00,Wunderground v.1.15,2013-10-29 15:19:00,
2013-10-29 11:25:00,57.6,54.7,30.33,ENE,70,1.0,2.0,90,0.00,,,0.00,Wunderground v.1.15,2013-10-29 15:25:00,
2013-10-29 11:30:00,57.8,54.6,30.33,ENE,70,2.0,3.0,89,0.00,,,0.00,Wunderground v.1.15,2013-10-29 15:30:00,
2013-10-29 11:35:00,57.8,54.3,30.33,ENE,70,2.0,4.0,88,0.00,,,0.00,Wunderground v.1.15,2013-10-29 15:35:00,
2013-10-29 11:41:00,57.8,54.3,30.33,ENE,70,2.0,3.0,88,0.00,,,0.00,Wunderground v.1.15,2013-10-29 15:41:00,
2013-10-29 11:47:00,58.1,54.6,30.33,ENE,70,2.0,3.0,88,0.00,,,0.00,Wunderground v.1.15,2013-10-29 15:47:00,
2013-10-29 11:52:00,58.4,54.9,30.33,ENE,68,2.0,4.0,88,0.00,,,0.00,Wunderground v.1.15,2013-10-29 15:52:00,
2013-10-29 11:57:00,58.7,54.8,30.33,ENE,65,2.0,4.0,87,0.00,,,0.00,Wunderground v.1.15,2013-10-29 15:57:00,
2013-10-29 12:03:00,58.6,54.7,30.33,ENE,65,2.0,3.0,87,0.00,,,0.00,Wunderground v.1.15,2013-10-29 16:03:00,
2013-10-29 12:09:00,58.3,54.4,30.33,ENE,65,2.0,2.0,87,0.00,,,0.00,Wunderground v.1.15,2013-10-29 16:09:00,
2013-10-29 12:14:00,58.4,54.9,30.33,ENE,65,2.0,3.0,88,0.00,,,0.00,Wunderground v.1.15,2013-10-29 16:14:00,
2013-10-29 12:19:00,58.4,54.5,30.33,ENE,65,1.0,1.0,87,0.00,,,0.00,Wunderground v.1.15,2013-10-29 16:19:00,
2013-10-29 12:25:00,58.6,54.7,30.33,ENE,62,0.0,3.0,87,0.00,,,0.00,Wunderground v.1.15,2013-10-29 16:25:00,
2013-10-29 12:30:00,58.9,55.0,30.33,ENE,62,1.0,3.0,87,0.00,,,0.00,Wunderground v.1.15,2013-10-29 16:30:00,
2013-10-29 12:36:00,59.5,54.7,30.32,ENE,58,2.0,4.0,84,0.00,,,0.00,Wunderground v.1.15,2013-10-29 16:36:00,
2013-10-29 12:41:00,60.1,55.2,30.32,NE,56,1.0,5.0,84,0.00,,,0.00,Wunderground v.1.15,2013-10-29 16:41:00,
2013-10-29 12:47:00,60.7,54.8,30.32,NE,49,1.0,5.0,81,0.00,,,0.00,Wunderground v.1.15,2013-10-29 16:47:00,
2013-10-29 12:52:00,61.2,55.3,30.30,NE,39,2.0,4.0,81,0.00,,,0.00,Wunderground v.1.15,2013-10-29 16:52:00,
2013-10-29 12:58:00,61.6,54.7,30.30,ENE,75,2.0,5.0,78,0.00,,,0.00,Wunderground v.1.15,2013-10-29 16:58:00,
2013-10-29 13:03:00,61.8,55.2,30.30,NE,56,2.0,6.0,79,0.00,,,0.00,Wunderground v.1.15,2013-10-29 17:03:00,
2013-10-29 13:09:00,61.0,55.1,30.30,NE,55,3.0,3.0,81,0.00,,,0.00,Wunderground v.1.15,2013-10-29 17:09:00,
2013-10-29 13:14:00,61.5,55.6,30.30,NE,54,3.0,5.0,81,0.00,,,0.00,Wunderground v.1.15,2013-10-29 17:14:00,
2013-10-29 13:20:00,61.6,55.0,30.30,ENE,71,3.0,4.0,79,0.00,,,0.00,Wunderground v.1.15,2013-10-29 17:20:00,
2013-10-29 13:25:00,61.6,55.0,30.30,ENE,58,3.0,6.0,79,0.00,,,0.00,Wunderground v.1.15,2013-10-29 17:25:00,
2013-10-29 13:31:00,61.3,54.4,30.30,ENE,60,3.0,4.0,78,0.00,,,0.00,Wunderground v.1.15,2013-10-29 17:31:00,
2013-10-29 13:36:00,61.6,55.4,30.29,NE,55,3.0,5.0,80,0.00,,,0.00,Wunderground v.1.15,2013-10-29 17:36:00,
2013-10-29 13:42:00,62.3,55.0,30.29,NE,53,3.0,6.0,77,0.00,,,0.00,Wunderground v.1.15,2013-10-29 17:42:00,
2013-10-29 13:47:00,62.7,54.7,30.29,NE,43,4.0,6.0,75,0.00,,,0.00,Wunderground v.1.15,2013-10-29 17:47:00,
2013-10-29 13:53:00,62.4,54.7,30.28,ENE,59,4.0,5.0,76,0.00,,,0.00,Wunderground v.1.15,2013-10-29 17:53:00,
2013-10-29 13:58:00,62.9,54.9,30.28,NE,42,4.0,5.0,75,0.00,,,0.00,Wunderground v.1.15,2013-10-29 17:58:00,
2013-10-29 14:04:00,62.9,54.5,30.28,NE,54,3.0,7.0,74,0.00,,,0.00,Wunderground v.1.15,2013-10-29 18:04:00,
2013-10-29 14:09:00,63.2,55.1,30.26,NNE,23,4.0,5.0,75,0.00,,,0.00,Wunderground v.1.15,2013-10-29 18:09:00,
2013-10-29 14:15:00,63.2,54.4,30.26,East,88,5.0,8.0,73,0.00,,,0.00,Wunderground v.1.15,2013-10-29 18:15:00,
2013-10-29 14:20:00,63.5,54.7,30.26,ENE,63,4.0,6.0,73,0.00,,,0.00,Wunderground v.1.15,2013-10-29 18:20:00,
2013-10-29 14:25:00,63.9,54.7,30.25,NE,46,4.0,6.0,72,0.00,,,0.00,Wunderground v.1.15,2013-10-29 18:25:00,
2013-10-29 14:31:00,63.9,55.1,30.25,NE,44,4.0,6.0,73,0.00,,,0.00,Wunderground v.1.15,2013-10-29 18:31:00,
2013-10-29 14:36:00,63.5,54.7,30.24,ENE,66,5.0,6.0,73,0.00,,,0.00,Wunderground v.1.15,2013-10-29 18:36:00,
2013-10-29 14:42:00,63.7,54.1,30.24,NE,45,5.0,6.0,71,0.00,,,0.00,Wunderground v.1.15,2013-10-29 18:42:00,
2013-10-29 14:47:00,64.2,54.6,30.24,NE,51,5.0,7.0,71,0.00,,,0.00,Wunderground v.1.15,2013-10-29 18:47:00,
2013-10-29 14:53:00,64.7,55.1,30.23,ENE,67,6.0,10.0,71,0.00,,,0.00,Wunderground v.1.15,2013-10-29 18:53:00,
2013-10-29 14:58:00,64.2,54.6,30.23,ENE,65,4.0,10.0,71,0.00,,,0.00,Wunderground v.1.15,2013-10-29 18:58:00,
2013-10-29 15:04:00,63.9,55.1,30.23,ENE,65,2.0,4.0,73,0.00,,,0.00,Wunderground v.1.15,2013-10-29 19:04:00,
2013-10-29 15:09:00,63.7,54.9,30.24,ENE,64,3.0,3.0,73,0.00,,,0.00,Wunderground v.1.15,2013-10-29 19:09:00,
2013-10-29 15:15:00,63.7,54.9,30.24,ENE,67,2.0,4.0,73,0.00,,,0.00,Wunderground v.1.15,2013-10-29 19:15:00,
2013-10-29 15:20:00,63.7,54.9,30.24,NE,54,2.0,6.0,73,0.00,,,0.00,Wunderground v.1.15,2013-10-29 19:20:00,
2013-10-29 15:26:00,63.7,54.9,30.24,NE,55,2.0,6.0,73,0.00,,,0.00,Wunderground v.1.15,2013-10-29 19:26:00,
2013-10-29 15:31:00,63.7,55.3,30.24,NE,55,1.0,2.0,74,0.00,,,0.00,Wunderground v.1.15,2013-10-29 19:31:00,
2013-10-29 15:36:00,63.7,55.3,30.24,NE,55,0.0,4.0,74,0.00,,,0.00,Wunderground v.1.15,2013-10-29 19:36:00,
2013-10-29 15:42:00,63.5,55.1,30.24,NE,55,0.0,0.0,74,0.00,,,0.00,Wunderground v.1.15,2013-10-29 19:42:00,
2013-10-29 15:47:00,63.5,55.4,30.24,NE,55,0.0,0.0,75,0.00,,,0.00,Wunderground v.1.15,2013-10-29 19:47:00,
2013-10-29 15:53:00,63.4,55.3,30.25,NE,55,0.0,0.0,75,0.00,,,0.00,Wunderground v.1.15,2013-10-29 19:53:00,
2013-10-29 15:58:00,63.4,55.7,30.25,NE,55,0.0,1.0,76,0.00,,,0.00,Wunderground v.1.15,2013-10-29 19:58:00,
2013-10-29 16:03:00,63.4,55.7,30.25,NE,55,0.0,0.0,76,0.00,,,0.00,Wunderground v.1.15,2013-10-29 20:03:00,
2013-10-29 16:09:00,63.4,55.3,30.24,NE,55,0.0,0.0,75,0.00,,,0.00,Wunderground v.1.15,2013-10-29 20:09:00,
2013-10-29 16:14:00,63.5,55.4,30.24,NE,55,0.0,0.0,75,0.00,,,0.00,Wunderground v.1.15,2013-10-29 20:14:00,
2013-10-29 16:20:00,63.7,55.6,30.24,NE,55,0.0,0.0,75,0.00,,,0.00,Wunderground v.1.15,2013-10-29 20:20:00,
2013-10-29 16:25:00,64.0,55.2,30.24,NE,55,0.0,2.0,73,0.00,,,0.00,Wunderground v.1.15,2013-10-29 20:25:00,
2013-10-29 16:30:00,64.0,55.2,30.24,NE,55,0.0,0.0,73,0.00,,,0.00,Wunderground v.1.15,2013-10-29 20:30:00,
2013-10-29 16:36:00,64.3,56.2,30.23,NE,55,0.0,2.0,75,0.00,,,0.00,Wunderground v.1.15,2013-10-29 20:36:00,
2013-10-29 16:42:00,64.2,56.1,30.23,NE,55,0.0,3.0,75,0.00,,,0.00,Wunderground v.1.15,2013-10-29 20:42:00,
2013-10-29 16:48:00,64.2,55.7,30.23,NE,55,0.0,3.0,74,0.00,,,0.00,Wunderground v.1.15,2013-10-29 20:48:00,
2013-10-29 16:53:00,64.2,55.7,30.23,NE,55,0.0,0.0,74,0.00,,,0.00,Wunderground v.1.15,2013-10-29 20:53:00,
2013-10-29 16:59:00,64.2,56.1,30.23,NE,55,0.0,0.0,75,0.00,,,0.00,Wunderground v.1.15,2013-10-29 20:59:00,
2013-10-29 17:04:00,64.2,56.1,30.23,NE,55,0.0,0.0,75,0.00,,,0.00,Wunderground v.1.15,2013-10-29 21:04:00,
2013-10-29 17:10:00,64.0,56.6,30.23,NE,55,0.0,0.0,77,0.00,,,0.00,Wunderground v.1.15,2013-10-29 21:10:00,
2013-10-29 17:15:00,64.0,55.9,30.23,NE,55,0.0,0.0,75,0.00,,,0.00,Wunderground v.1.15,2013-10-29 21:15:00,
2013-10-29 17:21:00,64.0,56.3,30.24,NE,55,0.0,0.0,76,0.00,,,0.00,Wunderground v.1.15,2013-10-29 21:21:00,
2013-10-29 17:26:00,64.0,56.3,30.24,NE,55,0.0,0.0,76,0.00,,,0.00,Wunderground v.1.15,2013-10-29 21:26:00,
2013-10-29 17:31:00,63.9,55.8,30.24,NE,55,0.0,0.0,75,0.00,,,0.00,Wunderground v.1.15,2013-10-29 21:31:00,
2013-10-29 17:37:00,63.5,55.8,30.23,NE,55,0.0,0.0,76,0.00,,,0.00,Wunderground v.1.15,2013-10-29 21:37:00,
2013-10-29 17:42:00,63.4,55.7,30.23,NE,55,0.0,0.0,76,0.00,,,0.00,Wunderground v.1.15,2013-10-29 21:42:00,
2013-10-29 17:48:00,63.4,56.1,30.23,NE,55,0.0,0.0,77,0.00,,,0.00,Wunderground v.1.15,2013-10-29 21:48:00,
2013-10-29 17:53:00,63.2,55.9,30.24,NE,55,0.0,0.0,77,0.00,,,0.00,Wunderground v.1.15,2013-10-29 21:53:00,
2013-10-29 17:59:00,63.2,55.9,30.24,NE,55,0.0,0.0,77,0.00,,,0.00,Wunderground v.1.15,2013-10-29 21:59:00,
2013-10-29 18:04:00,63.2,55.9,30.24,NE,55,0.0,0.0,77,0.00,,,0.00,Wunderground v.1.15,2013-10-29 22:04:00,
2013-10-29 18:09:00,63.2,55.9,30.24,NE,55,0.0,0.0,77,0.00,,,0.00,Wunderground v.1.15,2013-10-29 22:09:00,
2013-10-29 18:15:00,63.2,55.9,30.24,NE,55,0.0,0.0,77,0.00,,,0.00,Wunderground v.1.15,2013-10-29 22:15:00,
2013-10-29 18:20:00,63.1,55.8,30.24,NE,55,0.0,0.0,77,0.00,,,0.00,Wunderground v.1.15,2013-10-29 22:20:00,
2013-10-29 18:26:00,62.7,55.7,30.23,NE,55,0.0,0.0,78,0.00,,,0.00,Wunderground v.1.15,2013-10-29 22:26:00,
2013-10-29 18:31:00,62.6,56.0,30.23,NE,55,0.0,0.0,79,0.00,,,0.00,Wunderground v.1.15,2013-10-29 22:31:00,
2013-10-29 18:37:00,62.4,56.1,30.23,NE,55,0.0,0.0,80,0.00,,,0.00,Wunderground v.1.15,2013-10-29 22:37:00,
2013-10-29 18:42:00,62.1,55.9,30.23,NE,55,0.0,0.0,80,0.00,,,0.00,Wunderground v.1.15,2013-10-29 22:42:00,
2013-10-29 18:47:00,62.0,56.1,30.23,NE,55,0.0,0.0,81,0.00,,,0.00,Wunderground v.1.15,2013-10-29 22:47:00,
2013-10-29 18:53:00,61.8,55.9,30.22,NE,55,0.0,0.0,81,0.00,,,0.00,Wunderground v.1.15,2013-10-29 22:53:00,
2013-10-29 18:58:00,61.5,56.0,30.22,NE,55,0.0,0.0,82,0.00,,,0.00,Wunderground v.1.15,2013-10-29 22:58:00,
2013-10-29 19:04:00,61.0,56.1,30.22,NE,55,0.0,0.0,84,0.00,,,0.00,Wunderground v.1.15,2013-10-29 23:04:00,
2013-10-29 19:09:00,60.7,56.2,30.23,NE,55,0.0,0.0,85,0.00,,,0.00,Wunderground v.1.15,2013-10-29 23:09:00,
2013-10-29 19:15:00,60.4,56.2,30.23,NE,55,0.0,0.0,86,0.00,,,0.00,Wunderground v.1.15,2013-10-29 23:15:00,
2013-10-29 19:20:00,60.2,56.3,30.23,NE,55,0.0,0.0,87,0.00,,,0.00,Wunderground v.1.15,2013-10-29 23:20:00,
2013-10-29 19:26:00,60.2,56.3,30.23,NE,55,0.0,0.0,87,0.00,,,0.00,Wunderground v.1.15,2013-10-29 23:26:00,
2013-10-29 19:31:00,60.2,56.6,30.23,NE,55,0.0,0.0,88,0.00,,,0.00,Wunderground v.1.15,2013-10-29 23:31:00,
2013-10-29 19:37:00,60.1,56.2,30.23,NE,55,0.0,0.0,87,0.00,,,0.00,Wunderground v.1.15,2013-10-29 23:37:00,
2013-10-29 19:42:00,59.9,56.3,30.23,NE,55,0.0,0.0,88,0.00,,,0.00,Wunderground v.1.15,2013-10-29 23:42:00,
2013-10-29 19:48:00,59.8,56.2,30.23,NE,55,0.0,0.0,88,0.00,,,0.00,Wunderground v.1.15,2013-10-29 23:48:00,
2013-10-29 19:53:00,60.1,56.2,30.24,NE,55,0.0,0.0,87,0.00,,,0.00,Wunderground v.1.15,2013-10-29 23:53:00,
2013-10-29 19:58:00,60.7,56.2,30.24,NE,55,0.0,1.0,85,0.00,,,0.00,Wunderground v.1.15,2013-10-29 23:58:00,
2013-10-29 20:04:00,61.0,55.8,30.24,NE,55,0.0,0.0,83,0.00,,,0.00,Wunderground v.1.15,2013-10-30 00:04:00,
2013-10-29 20:10:00,60.5,56.0,30.23,NE,55,0.0,0.0,85,0.00,,,0.00,Wunderground v.1.15,2013-10-30 00:10:00,
2013-10-29 20:15:00,60.1,55.9,30.23,NE,55,0.0,0.0,86,0.00,,,0.00,Wunderground v.1.15,2013-10-30 00:15:00,
2013-10-29 20:21:00,59.9,55.7,30.24,NE,55,0.0,0.0,86,0.00,,,0.00,Wunderground v.1.15,2013-10-30 00:21:00,
2013-10-29 20:26:00,59.6,56.0,30.24,NE,55,0.0,0.0,88,0.00,,,0.00,Wunderground v.1.15,2013-10-30 00:26:00,
2013-10-29 20:32:00,59.3,55.7,30.24,NE,55,0.0,0.0,88,0.00,,,0.00,Wunderground v.1.15,2013-10-30 00:32:00,
2013-10-29 20:37:00,59.2,56.0,30.24,NE,55,0.0,0.0,89,0.00,,,0.00,Wunderground v.1.15,2013-10-30 00:37:00,
2013-10-29 20:43:00,59.0,55.8,30.24,NE,55,0.0,0.0,89,0.00,,,0.00,Wunderground v.1.15,2013-10-30 00:43:00,
2013-10-29 20:48:00,59.3,55.7,30.24,NE,55,0.0,0.0,88,0.00,,,0.00,Wunderground v.1.15,2013-10-30 00:48:00,
2013-10-29 20:53:00,59.3,55.7,30.24,NE,55,0.0,0.0,88,0.00,,,0.00,Wunderground v.1.15,2013-10-30 00:53:00,
2013-10-29 20:59:00,59.5,55.9,30.24,NE,55,0.0,0.0,88,0.00,,,0.00,Wunderground v.1.15,2013-10-30 00:59:00,
2013-10-29 21:05:00,59.6,56.0,30.24,NE,55,0.0,0.0,88,0.00,,,0.00,Wunderground v.1.15,2013-10-30 01:05:00,
2013-10-29 21:11:00,59.6,55.7,30.24,NE,55,0.0,0.0,87,0.00,,,0.00,Wunderground v.1.15,2013-10-30 01:11:00,
2013-10-29 21:16:00,59.8,55.9,30.24,NE,55,0.0,0.0,87,0.00,,,0.00,Wunderground v.1.15,2013-10-30 01:16:00,
2013-10-29 21:22:00,59.9,56.0,30.24,NE,55,0.0,0.0,87,0.00,,,0.00,Wunderground v.1.15,2013-10-30 01:22:00,
2013-10-29 21:27:00,60.1,55.9,30.24,NE,55,0.0,2.0,86,0.00,,,0.00,Wunderground v.1.15,2013-10-30 01:27:00,
2013-10-29 21:33:00,60.1,56.2,30.24,NE,55,0.0,0.0,87,0.00,,,0.00,Wunderground v.1.15,2013-10-30 01:33:00,
2013-10-29 21:38:00,60.1,55.9,30.24,NE,55,0.0,0.0,86,0.00,,,0.00,Wunderground v.1.15,2013-10-30 01:38:00,
2013-10-29 21:44:00,60.1,55.9,30.24,NE,55,0.0,0.0,86,0.00,,,0.00,Wunderground v.1.15,2013-10-30 01:44:00,
2013-10-29 21:49:00,60.1,55.9,30.24,NE,55,0.0,0.0,86,0.00,,,0.00,Wunderground v.1.15,2013-10-30 01:49:00,
2013-10-29 21:54:00,60.1,55.9,30.23,NE,55,1.0,2.0,86,0.00,,,0.00,Wunderground v.1.15,2013-10-30 01:54:00,
2013-10-29 22:00:00,59.9,55.7,30.23,NE,55,1.0,1.0,86,0.00,,,0.00,Wunderground v.1.15,2013-10-30 02:00:00,
2013-10-29 22:05:00,59.9,55.7,30.23,NE,55,0.0,1.0,86,0.00,,,0.00,Wunderground v.1.15,2013-10-30 02:05:00,
2013-10-29 22:11:00,59.8,55.6,30.23,NE,55,0.0,0.0,86,0.00,,,0.00,Wunderground v.1.15,2013-10-30 02:11:00,
2013-10-29 22:16:00,59.9,55.7,30.23,NE,55,0.0,0.0,86,0.00,,,0.00,Wunderground v.1.15,2013-10-30 02:16:00,
2013-10-29 22:21:00,59.9,55.7,30.23,NE,55,0.0,0.0,86,0.00,,,0.00,Wunderground v.1.15,2013-10-30 02:21:00,
2013-10-29 22:27:00,60.1,55.9,30.23,NE,55,0.0,0.0,86,0.00,,,0.00,Wunderground v.1.15,2013-10-30 02:27:00,
2013-10-29 22:32:00,60.1,55.9,30.23,NE,55,0.0,0.0,86,0.00,,,0.00,Wunderground v.1.15,2013-10-30 02:32:00,
2013-10-29 22:38:00,59.9,55.7,30.24,NE,55,0.0,0.0,86,0.00,,,0.00,Wunderground v.1.15,2013-10-30 02:38:00,
2013-10-29 22:43:00,59.9,55.7,30.24,NE,55,0.0,0.0,86,0.00,,,0.00,Wunderground v.1.15,2013-10-30 02:43:00,
2013-10-29 22:49:00,59.8,55.9,30.24,NE,55,0.0,0.0,87,0.00,,,0.00,Wunderground v.1.15,2013-10-30 02:49:00,
2013-10-29 22:54:00,59.6,55.7,30.24,NE,55,0.0,0.0,87,0.00,,,0.00,Wunderground v.1.15,2013-10-30 02:54:00,
2013-10-29 23:00:00,59.6,55.7,30.24,NE,55,0.0,0.0,87,0.00,,,0.00,Wunderground v.1.15,2013-10-30 03:00:00,
2013-10-29 23:05:00,59.8,55.9,30.24,NE,55,0.0,0.0,87,0.00,,,0.00,Wunderground v.1.15,2013-10-30 03:05:00,
2013-10-29 23:11:00,59.9,55.7,30.24,NE,55,0.0,0.0,86,0.00,,,0.00,Wunderground v.1.15,2013-10-30 03:11:00,
2013-10-29 23:16:00,59.8,55.9,30.24,NE,55,0.0,0.0,87,0.00,,,0.00,Wunderground v.1.15,2013-10-30 03:16:00,
2013-10-29 23:22:00,59.8,55.9,30.24,NE,55,0.0,0.0,87,0.00,,,0.00,Wunderground v.1.15,2013-10-30 03:22:00,
2013-10-29 23:27:00,59.9,56.0,30.24,NE,55,0.0,0.0,87,0.00,,,0.00,Wunderground v.1.15,2013-10-30 03:27:00,
2013-10-29 23:32:00,59.9,56.0,30.24,NE,55,0.0,0.0,87,0.00,,,0.00,Wunderground v.1.15,2013-10-30 03:32:00,
2013-10-29 23:38:00,60.1,56.2,30.23,NE,55,0.0,0.0,87,0.00,,,0.00,Wunderground v.1.15,2013-10-30 03:38:00,
2013-10-29 23:44:00,60.1,55.9,30.23,NE,55,0.0,0.0,86,0.00,,,0.00,Wunderground v.1.15,2013-10-30 03:44:00,
2013-10-29 23:49:00,60.2,56.3,30.23,NE,55,0.0,0.0,87,0.00,,,0.00,Wunderground v.1.15,2013-10-30 03:49:00,
2013-10-29 23:55:00,60.2,56.3,30.23,NE,55,0.0,0.0,87,0.00,,,0.00,Wunderground v.1.15,2013-10-30 03:55:00,